Overseas Houston — WWAA — position and weather

sailwx.info

Track history (hours):
 
Tides and Currents Weather Stations Pressure Air Temp Water Temp Dewpoint Dewpoint Depression Visibility Wind Speed Wind Dir Waves Ship Positions

Overseas Houston

Owner: ASC Leasing I, Inc., Philadelphia, PA. More information available from US FCC via Universal Licensing System and Coast Guard Vessel Documentation Center.

Last reported at 2014-Dec-19 23:24 UTC. Time now 2014-Dec-21 01:12 UTC.
Position N 29°55' W 089°58'.

Type: Tanker. MMSI: 367109000.

Date/timePositionNaut miles runAvg speedWind from/ knotsBaromVisibWave heightAir tempDewpointWater temp
2014-Dec-19 23:24N 29°55' W 089°58'910.2
2014-Dec-19 22:31N 29°55' W 090°08'15 0.4
2014-Dec-18 06:28N 29°59' W 090°24'14 6.3
2014-Dec-18 04:17N 29°57' W 090°09'5 6.0
2014-Dec-18 03:32N 29°57' W 090°04'7 6.3
2014-Dec-18 02:22N 29°53' W 089°57'  
2014-Dec-15 03:33N 27°45' W 082°32'7 7.3
2014-Dec-15 02:33N 27°52' W 082°33'0 0.2
2014-Dec-15 01:31N 27°52' W 082°33'0 0.0
2014-Dec-15 00:31N 27°52' W 082°33'0 0.0
2014-Dec-14 23:13N 27°52' W 082°33'0 0.0
2014-Dec-14 22:28N 27°52' W 082°33'0 0.0
2014-Dec-14 21:31N 27°52' W 082°33'0 0.0
2014-Dec-14 20:31N 27°52' W 082°33'0 0.0
2014-Dec-14 19:28N 27°52' W 082°33'0 0.0
2014-Dec-14 18:31N 27°52' W 082°33'0 0.0
2014-Dec-14 17:31N 27°52' W 082°33'0 0.0
2014-Dec-14 16:31N 27°52' W 082°33'0 0.0
2014-Dec-14 15:31N 27°52' W 082°33'0 0.0
2014-Dec-14 14:31N 27°52' W 082°33'0 0.0
2014-Dec-14 13:34N 27°52' W 082°33'0 0.0
2014-Dec-14 12:27N 27°52' W 082°33'0 0.0
2014-Dec-14 11:33N 27°52' W 082°33'0 0.0
2014-Dec-14 10:33N 27°52' W 082°33'0 0.0
2014-Dec-14 09:33N 27°52' W 082°33'0 0.0
2014-Dec-14 08:33N 27°52' W 082°33'0 0.0
2014-Dec-14 07:30N 27°52' W 082°33'0 0.0
2014-Dec-14 06:30N 27°52' W 082°33'0 0.0
2014-Dec-14 05:33N 27°52' W 082°33'0 0.0
2014-Dec-14 04:33N 27°52' W 082°33'0 0.0
2014-Dec-14 03:33N 27°52' W 082°33'0 0.0
2014-Dec-14 02:33N 27°52' W 082°33'1 0.9
2014-Dec-14 01:33N 27°51' W 082°34'5 4.6
2014-Dec-14 00:33N 27°47' W 082°30'8 8.1
2014-Dec-13 23:32N 27°55' W 082°27'0 0.0
2014-Dec-13 22:32N 27°55' W 082°27'0 0.0
2014-Dec-13 21:31N 27°55' W 082°27'0 0.0
2014-Dec-13 20:31N 27°55' W 082°27'0 0.0
2014-Dec-13 19:31N 27°55' W 082°27'0 0.0
2014-Dec-13 18:31N 27°55' W 082°27'0 0.0
2014-Dec-13 17:31N 27°55' W 082°27'0 0.0
2014-Dec-13 16:31N 27°55' W 082°27'0 0.0
2014-Dec-13 15:28N 27°55' W 082°27'0 0.0
2014-Dec-13 14:31N 27°55' W 082°27'0 0.0
2014-Dec-13 13:31N 27°55' W 082°27'0 0.0
2014-Dec-13 12:31N 27°55' W 082°27'0 0.0
2014-Dec-13 11:31N 27°55' W 082°27'0 0.0
2014-Dec-13 10:31N 27°55' W 082°27'0 0.0
2014-Dec-13 09:31N 27°55' W 082°27'0 0.0
2014-Dec-13 08:31N 27°55' W 082°27'0 0.0
2014-Dec-13 07:31N 27°55' W 082°27'0 0.0
2014-Dec-13 06:31N 27°55' W 082°27'0 0.0
2014-Dec-13 05:31N 27°55' W 082°27'0 0.0
2014-Dec-13 04:31N 27°55' W 082°27'0 0.0
2014-Dec-13 03:31N 27°55' W 082°27'0 0.0
2014-Dec-13 02:28N 27°55' W 082°27'0 0.0
2014-Dec-13 01:19N 27°55' W 082°27'0 0.0
2014-Dec-13 00:31N 27°55' W 082°27'0 0.0
2014-Dec-12 23:31N 27°55' W 082°27'0 0.0
2014-Dec-12 22:22N 27°55' W 082°27'0 0.0
2014-Dec-12 21:31N 27°55' W 082°27'0 0.0
2014-Dec-12 20:31N 27°55' W 082°27'0 0.0
2014-Dec-12 19:31N 27°55' W 082°27'0 0.0
2014-Dec-12 18:31N 27°55' W 082°27'0 0.0
2014-Dec-12 17:31N 27°55' W 082°27'0 0.0
2014-Dec-12 16:31N 27°55' W 082°27'0 0.0
2014-Dec-12 15:31N 27°55' W 082°27'0 0.0
2014-Dec-12 14:31N 27°55' W 082°27'0 0.0
2014-Dec-12 13:31N 27°55' W 082°27'0 0.0
2014-Dec-12 12:31N 27°55' W 082°27'0 0.0
2014-Dec-12 11:31N 27°55' W 082°27'0 0.0
2014-Dec-12 10:34N 27°55' W 082°27'0 0.0
2014-Dec-12 09:33N 27°55' W 082°27'0 0.2
2014-Dec-12 08:33N 27°55' W 082°27'7 7.3
2014-Dec-12 07:34N 27°48' W 082°29'41911.9
2014-Dec-10 20:29N 29°57' W 090°04'  
Track history (hours):
 
Tides and Currents Weather Stations Pressure Air Temp Water Temp Dewpoint Dewpoint Depression Visibility Wind Speed Wind Dir Waves Ship Positions

Overseas Houston

Owner: ASC Leasing I, Inc., Philadelphia, PA. More information available from US FCC via Universal Licensing System and Coast Guard Vessel Documentation Center.

Last reported at 2014-Dec-19 23:24 UTC. Time now 2014-Dec-21 01:12 UTC.
Position N 29°55' W 089°58'.

Type: Tanker. MMSI: 367109000.

Date/timePositionNaut miles runAvg speedWind from/ knotsBaromVisibWave heightAir tempDewpointWater temp
2014-Dec-19 23:24N 29°55' W 089°58'910.2
2014-Dec-19 22:31N 29°55' W 090°08'15 0.4
2014-Dec-18 06:28N 29°59' W 090°24'14 6.3
2014-Dec-18 04:17N 29°57' W 090°09'5 6.0
2014-Dec-18 03:32N 29°57' W 090°04'7 6.3
2014-Dec-18 02:22N 29°53' W 089°57'  
2014-Dec-15 03:33N 27°45' W 082°32'7 7.3
2014-Dec-15 02:33N 27°52' W 082°33'0 0.2
2014-Dec-15 01:31N 27°52' W 082°33'0 0.0
2014-Dec-15 00:31N 27°52' W 082°33'0 0.0
2014-Dec-14 23:13N 27°52' W 082°33'0 0.0
2014-Dec-14 22:28N 27°52' W 082°33'0 0.0
2014-Dec-14 21:31N 27°52' W 082°33'0 0.0
2014-Dec-14 20:31N 27°52' W 082°33'0 0.0
2014-Dec-14 19:28N 27°52' W 082°33'0 0.0
2014-Dec-14 18:31N 27°52' W 082°33'0 0.0
2014-Dec-14 17:31N 27°52' W 082°33'0 0.0
2014-Dec-14 16:31N 27°52' W 082°33'0 0.0
2014-Dec-14 15:31N 27°52' W 082°33'0 0.0
2014-Dec-14 14:31N 27°52' W 082°33'0 0.0
2014-Dec-14 13:34N 27°52' W 082°33'0 0.0
2014-Dec-14 12:27N 27°52' W 082°33'0 0.0
2014-Dec-14 11:33N 27°52' W 082°33'0 0.0
2014-Dec-14 10:33N 27°52' W 082°33'0 0.0
2014-Dec-14 09:33N 27°52' W 082°33'0 0.0
2014-Dec-14 08:33N 27°52' W 082°33'0 0.0
2014-Dec-14 07:30N 27°52' W 082°33'0 0.0
2014-Dec-14 06:30N 27°52' W 082°33'0 0.0
2014-Dec-14 05:33N 27°52' W 082°33'0 0.0
2014-Dec-14 04:33N 27°52' W 082°33'0 0.0
2014-Dec-14 03:33N 27°52' W 082°33'0 0.0
2014-Dec-14 02:33N 27°52' W 082°33'1 0.9
2014-Dec-14 01:33N 27°51' W 082°34'5 4.6
2014-Dec-14 00:33N 27°47' W 082°30'8 8.1
2014-Dec-13 23:32N 27°55' W 082°27'0 0.0
2014-Dec-13 22:32N 27°55' W 082°27'0 0.0
2014-Dec-13 21:31N 27°55' W 082°27'0 0.0
2014-Dec-13 20:31N 27°55' W 082°27'0 0.0
2014-Dec-13 19:31N 27°55' W 082°27'0 0.0
2014-Dec-13 18:31N 27°55' W 082°27'0 0.0
2014-Dec-13 17:31N 27°55' W 082°27'0 0.0
2014-Dec-13 16:31N 27°55' W 082°27'0 0.0
2014-Dec-13 15:28N 27°55' W 082°27'0 0.0
2014-Dec-13 14:31N 27°55' W 082°27'0 0.0
2014-Dec-13 13:31N 27°55' W 082°27'0 0.0
2014-Dec-13 12:31N 27°55' W 082°27'0 0.0
2014-Dec-13 11:31N 27°55' W 082°27'0 0.0
2014-Dec-13 10:31N 27°55' W 082°27'0 0.0
2014-Dec-13 09:31N 27°55' W 082°27'0 0.0
2014-Dec-13 08:31N 27°55' W 082°27'0 0.0
2014-Dec-13 07:31N 27°55' W 082°27'0 0.0
2014-Dec-13 06:31N 27°55' W 082°27'0 0.0
2014-Dec-13 05:31N 27°55' W 082°27'0 0.0
2014-Dec-13 04:31N 27°55' W 082°27'0 0.0
2014-Dec-13 03:31N 27°55' W 082°27'0 0.0
2014-Dec-13 02:28N 27°55' W 082°27'0 0.0
2014-Dec-13 01:19N 27°55' W 082°27'0 0.0
2014-Dec-13 00:31N 27°55' W 082°27'0 0.0
2014-Dec-12 23:31N 27°55' W 082°27'0 0.0
2014-Dec-12 22:22N 27°55' W 082°27'0 0.0
2014-Dec-12 21:31N 27°55' W 082°27'0 0.0
2014-Dec-12 20:31N 27°55' W 082°27'0 0.0
2014-Dec-12 19:31N 27°55' W 082°27'0 0.0
2014-Dec-12 18:31N 27°55' W 082°27'0 0.0
2014-Dec-12 17:31N 27°55' W 082°27'0 0.0
2014-Dec-12 16:31N 27°55' W 082°27'0 0.0
2014-Dec-12 15:31N 27°55' W 082°27'0 0.0
2014-Dec-12 14:31N 27°55' W 082°27'0 0.0
2014-Dec-12 13:31N 27°55' W 082°27'0 0.0
2014-Dec-12 12:31N 27°55' W 082°27'0 0.0
2014-Dec-12 11:31N 27°55' W 082°27'0 0.0
2014-Dec-12 10:34N 27°55' W 082°27'0 0.0
2014-Dec-12 09:33N 27°55' W 082°27'0 0.2
2014-Dec-12 08:33N 27°55' W 082°27'7 7.3
2014-Dec-12 07:34N 27°48' W 082°29'41911.9
2014-Dec-10 20:29N 29°57' W 090°04'  

Dump ship's entire track history